Portada
METAR-TAF:

METAR-TAF

Aeropuertos :

Zabol, Irán

latitud: 31-20N, longitud: 061-29E, altitud: 489 m

Observación

El informe se hizo hace 41 minutos, a las 13:00 UTC
Viento 31 kt del norte con ráfagas de 41 kt
Temperatura 34°C
Humedad 12%
Presión 1006 hPa
Visibilidad: 8000 m

METAR: OIZB 111300Z 35031G41KT 8000 NSC 34/01 Q1006

Hora: 18:11 (13:41 UTC)


TAF: falta

Observaciones y pronósticos meteorológicos de más de 4000 aeropuertos (mensajes METAR y TAF).

Los puntos amarillos y rojos representan las estaciones disponibles.

Ponga el ratón en el punto deseado para ver el nombre de la estación.

Haga clic para ver las observaciones y los pronósticos meteorológicos.

Para cambiar el mapa : haga clic en los botones verdes con una cruz de color negro para hacer un zoom, en el botón verde con un guión para alejar o en las flechas verdes para mapas adyacentes.


METAR-TAF: